Terminal Aerodrome Forecast
Issued by NWS Bismarck, ND

Home | Current Version | Previous Version | Text Only | Print | Product List | Glossary On
Versions: 1 2 3 4 5 6 7 8 9 10 11 12 13 14 15 16 17 18 19 20 21
000
FTUS43 KBIS 200500
TAFBIS
TAF
KBIS 200520Z 2006/2106 12007KT P6SM SKC
     FM201400 14008KT P6SM BKN200
     FM201800 14012KT P6SM -SHRA BKN060
      TEMPO 2018/2022 3SM TSRA BKN030CB OVC060=

USA.gov is the U.S. government's official web portal to all federal, state and local government web resources and services.